EmailTwitter


Surface observations / United Kingdom / EGTE (03839)

Regions: Quebec | Canada | USA | Europe | France | UK | Elsewhere
Station
Display
Info & Location for EGTE (03839) | Help decoding METAR

Weather Conditions observed on 2017/08/20 at 13:20 UTC at EXETER AIRPORT, UK (EGTE)

Sky conditions: partly cloudy.

Obstruction(s) to Vision: light rain and moderate drizzle.

Temperature: 15.0 Celsius.

Dewpoint: 13.0 Celsius.

Relative Humidity: 88%

Winds: South at 19 km/h or 10 knots.

Mean Sea level Pressure: 102.30 kilopascals.

Horizontal visibility: 5.59 statute miles or 8.95 kilometers.

Height of the Ceiling: 457 metres ( 1500 feet ).

Coded METAR:

EGTE 201320Z 17010KT 9000 -RADZ FEW008 BKN015 15/13 Q1023=